createdAt,value
2023-05-22T13:12:22.257Z,69.36
2023-05-22T13:13:24.161Z,69.56
2023-05-22T13:14:24.989Z,69.06
2023-05-22T13:15:26.326Z,68.96
2023-05-22T13:16:26.467Z,69.66
2023-05-22T13:17:27.238Z,70.06
2023-05-22T13:18:28.009Z,70.16
2023-05-22T13:19:28.801Z,70.36
2023-05-22T13:20:29.567Z,71.06
2023-05-22T13:21:30.298Z,70.89
2023-05-22T13:22:31.253Z,70.36
2023-05-22T13:25:05.936Z,71.46
2023-05-22T13:26:07.820Z,70.96
2023-05-22T13:27:08.820Z,70.06
2023-05-22T13:28:09.534Z,71.16
2023-05-22T13:29:10.287Z,70.46
2023-05-22T13:30:11.094Z,70.06
2023-05-22T13:31:11.822Z,69.96
2023-05-22T13:32:12.585Z,70.26
2023-05-22T13:33:13.367Z,70.16
2023-05-22T13:34:14.119Z,70.36
2023-05-22T13:35:14.815Z,70.36
2023-05-22T13:36:15.520Z,69.16
2023-05-22T13:37:16.305Z,69.36
2023-05-22T13:38:17.048Z,69.53
2023-05-22T13:39:17.752Z,69.53
2023-05-22T13:40:18.489Z,69.32
2023-05-22T13:41:19.265Z,69.43
2023-05-22T13:42:20.022Z,68.82
2023-05-22T13:43:20.778Z,68.63
2023-05-22T13:44:21.494Z,69.13
2023-05-22T13:45:22.199Z,69.02
2023-05-22T13:46:23.012Z,68.23
2023-05-22T13:47:23.992Z,68.33
2023-05-22T13:48:24.836Z,68.03
2023-05-22T13:49:25.564Z,68.52
2023-05-22T13:50:26.301Z,69.02
2023-05-22T13:51:27.127Z,69.43
2023-05-22T13:52:28.011Z,68.73
2023-05-22T13:53:28.800Z,69.13
2023-05-22T13:54:29.535Z,69.32
2023-05-22T13:55:30.231Z,69.23
2023-05-22T13:56:30.991Z,69.02
2023-05-22T13:57:31.704Z,69.13
2023-05-22T13:58:32.418Z,68.73
2023-05-22T13:59:33.146Z,68.33
2023-05-22T14:00:33.840Z,68.43
2023-05-22T14:01:34.689Z,68.13
2023-05-22T14:02:35.700Z,68.33
2023-05-22T14:03:36.527Z,68.73
2023-05-22T14:04:37.244Z,68.33
2023-05-22T14:05:38.296Z,68.73
2023-05-22T14:06:38.596Z,68.73
2023-05-22T14:07:39.330Z,68.52
2023-05-22T14:08:40.035Z,69.43
2023-05-22T14:09:40.754Z,69.26
2023-05-22T14:10:41.492Z,68.46
2023-05-22T14:11:42.218Z,68.36
2023-05-22T14:12:42.979Z,68.46
2023-05-22T14:13:43.690Z,68.46
2023-05-22T14:14:44.526Z,69.06
2023-05-22T14:15:45.250Z,69.16
2023-05-22T14:16:46.031Z,69.06
2023-05-22T14:17:46.759Z,69.13
2023-05-22T14:18:47.510Z,68.36
2023-05-22T14:19:48.286Z,69.06
2023-05-22T14:20:49.013Z,69.16
2023-05-22T14:21:49.916Z,68.46
2023-05-22T14:22:57.843Z,68.86
2023-05-22T14:23:51.641Z,69.16
2023-05-22T14:24:52.364Z,69.06
2023-05-22T14:25:53.066Z,69.16
2023-05-22T14:26:53.762Z,68.96
2023-05-22T14:27:54.677Z,68.86
2023-05-22T14:28:55.398Z,68.76
2023-05-22T14:29:56.096Z,69.36
2023-05-22T14:30:56.846Z,69.66
2023-05-22T14:31:57.667Z,69.76
2023-05-22T14:32:58.480Z,69.66
2023-05-22T14:33:59.338Z,69.49
2023-05-22T14:35:00.046Z,69.79
2023-05-22T14:36:00.791Z,70.09
2023-05-22T14:37:01.519Z,69.79
2023-05-22T14:38:02.256Z,69.39
2023-05-22T14:39:02.959Z,70.49
2023-05-22T14:40:04.113Z,70.19
2023-05-22T14:41:04.278Z,69.49
2023-05-22T14:42:05.009Z,69.79
2023-05-22T14:43:05.760Z,69.49
2023-05-22T14:44:06.461Z,70.09
2023-05-22T14:45:07.195Z,70.29
2023-05-22T14:46:07.917Z,70.59
2023-05-22T14:47:08.634Z,70.79
2023-05-22T14:48:10.947Z,70.69
2023-05-22T14:49:10.195Z,70.69
2023-05-22T14:50:19.213Z,70.79
2023-05-22T14:51:11.914Z,71.09
2023-05-22T14:52:12.679Z,70.99
2023-05-22T14:53:13.401Z,71.19
2023-05-22T14:54:15.632Z,71.19
2023-05-22T14:55:14.807Z,70.79
2023-05-22T14:56:15.518Z,70.53
2023-05-22T14:57:16.294Z,70.53
2023-05-22T14:58:17.023Z,70.83
2023-05-22T14:59:17.725Z,70.92
2023-05-22T15:00:18.429Z,70.43
2023-05-22T15:01:19.214Z,71.03
2023-05-22T15:02:19.905Z,71.53
2023-05-22T15:03:20.672Z,71.33
2023-05-22T15:04:21.522Z,71.42
2023-05-22T15:05:22.395Z,71.33
2023-05-22T15:06:23.119Z,71.12
2023-05-22T15:07:29.267Z,71.53
2023-05-22T15:08:24.924Z,71.53
2023-05-22T15:09:25.628Z,71.83
2023-05-22T15:10:26.357Z,71.16
2023-05-22T15:11:27.230Z,71.96
2023-05-22T15:12:27.937Z,72.16
2023-05-22T15:13:28.638Z,71.96
2023-05-22T15:14:29.354Z,72.16
2023-05-22T15:15:30.099Z,71.96
2023-05-22T15:16:30.878Z,71.86
2023-05-22T15:17:31.598Z,71.66
2023-05-22T15:18:32.290Z,71.36
2023-05-22T15:19:33.315Z,71.96
2023-05-22T15:20:34.139Z,72.26
2023-05-22T15:21:34.859Z,71.86
2023-05-22T15:22:35.577Z,72.06
2023-05-22T15:23:36.313Z,72.26
2023-05-22T15:24:37.074Z,72.66
2023-05-22T15:25:37.860Z,72.16
2023-05-22T15:26:38.619Z,71.76
2023-05-22T15:27:39.372Z,72.16
2023-05-22T15:28:40.115Z,72.36
2023-05-22T15:29:40.853Z,72.66
2023-05-22T15:30:41.592Z,72.96
2023-05-22T15:31:42.351Z,73.06
2023-05-22T15:32:43.081Z,72.76
2023-05-22T15:33:43.846Z,72.36
2023-05-22T15:34:44.541Z,72.36
2023-05-22T15:35:45.252Z,72.66
2023-05-22T15:36:45.987Z,72.56
2023-05-22T15:37:46.702Z,72.76
2023-05-22T15:38:47.570Z,72.36
2023-05-22T15:39:48.294Z,72.36
2023-05-22T15:40:49.026Z,72.66
2023-05-22T15:42:02.397Z,72.76
2023-05-22T15:42:50.755Z,72.76
2023-05-22T15:43:51.457Z,72.86
2023-05-22T15:44:52.165Z,72.80
2023-05-22T15:45:52.931Z,73.36
2023-05-22T15:46:53.654Z,73.46
2023-05-22T15:47:54.471Z,73.36
2023-05-22T15:48:55.180Z,73.06
2023-05-22T15:49:55.908Z,73.66
2023-05-22T15:50:56.608Z,74.06
2023-05-22T15:51:57.365Z,73.56
2023-05-22T15:52:58.110Z,73.76
2023-05-22T15:53:58.820Z,74.50
2023-05-22T15:54:59.513Z,73.90
2023-05-22T15:56:00.231Z,73.60
2023-05-22T15:57:00.948Z,73.30
2023-05-22T15:58:01.665Z,73.60
2023-05-22T15:59:02.547Z,73.00
2023-05-22T16:00:03.257Z,74.10
2023-05-22T16:01:04.019Z,73.19
2023-05-22T16:02:04.720Z,73.00
2023-05-22T16:03:05.564Z,72.80
2023-05-22T16:04:06.284Z,72.80
2023-05-22T16:05:06.986Z,73.39
2023-05-22T16:06:07.746Z,73.10
2023-05-22T16:07:08.470Z,73.00
2023-05-22T16:08:09.245Z,72.69
2023-05-22T16:10:04.803Z,72.89
2023-05-22T16:11:06.703Z,71.39
2023-05-22T16:12:07.495Z,71.59
2023-05-22T16:13:08.216Z,72.00
2023-05-22T16:14:08.924Z,72.30
2023-05-22T16:15:09.691Z,72.60
2023-05-22T16:16:10.602Z,72.60
2023-05-22T16:17:11.333Z,73.10
2023-05-22T16:18:12.065Z,73.10
2023-05-22T16:19:12.821Z,73.10
2023-05-22T16:20:13.976Z,72.60
2023-05-22T16:21:14.698Z,73.10
2023-05-22T16:22:15.411Z,73.39
2023-05-22T16:23:16.149Z,73.00
2023-05-22T16:24:16.949Z,73.10
2023-05-22T16:25:17.755Z,73.10
2023-05-22T16:26:18.522Z,73.50
2023-05-22T16:27:19.271Z,73.60
2023-05-22T16:28:19.971Z,73.39
2023-05-22T16:29:20.708Z,73.30
2023-05-22T16:30:21.449Z,73.30
2023-05-22T16:31:22.188Z,73.50
2023-05-22T16:32:23.058Z,73.60
2023-05-22T16:33:23.779Z,73.60
2023-05-22T16:34:24.537Z,73.80
2023-05-22T16:35:25.255Z,73.70
2023-05-22T16:36:27.250Z,73.80
2023-05-22T16:37:26.957Z,74.23
2023-05-22T16:38:27.683Z,74.13
2023-05-22T16:39:28.420Z,74.23
2023-05-22T16:40:29.125Z,74.03
2023-05-22T16:41:29.842Z,74.23
2023-05-22T16:42:30.681Z,74.33
2023-05-22T16:43:31.407Z,74.23
2023-05-22T16:44:32.112Z,74.03
2023-05-22T16:45:32.847Z,74.23
2023-05-22T16:46:33.582Z,74.23
2023-05-22T16:47:34.392Z,73.73
2023-05-22T16:48:35.146Z,73.13
2023-05-22T16:49:35.905Z,72.73
2023-05-22T16:50:36.582Z,72.93
2023-05-22T16:51:37.302Z,73.43
2023-05-22T16:52:38.047Z,73.53
2023-05-22T16:53:39.481Z,73.83
2023-05-22T16:54:40.371Z,73.73
2023-05-22T16:55:40.817Z,73.83
2023-05-22T16:56:41.117Z,73.83
2023-05-22T16:57:41.837Z,73.63
2023-05-22T16:58:42.636Z,73.83
2023-05-22T16:59:43.469Z,74.03
2023-05-22T17:00:44.293Z,73.53
2023-05-22T17:01:45.055Z,73.63
2023-05-22T17:02:45.910Z,72.73
2023-05-22T17:03:46.719Z,73.03
2023-05-22T17:04:47.427Z,73.23
2023-05-22T17:05:48.111Z,73.03
2023-05-22T17:06:48.940Z,73.23
2023-05-22T17:07:49.651Z,73.33
2023-05-22T17:08:50.381Z,73.03
2023-05-22T17:09:51.123Z,72.93
2023-05-22T17:10:51.838Z,73.13
2023-05-22T17:11:52.550Z,73.23
2023-05-22T17:12:53.267Z,73.33
2023-05-22T17:13:54.028Z,73.43
2023-05-22T17:14:54.741Z,73.43
2023-05-22T17:15:55.536Z,73.53
2023-05-22T17:16:56.336Z,73.73
2023-05-22T17:17:57.108Z,73.43
2023-05-22T17:18:57.825Z,73.33
2023-05-22T17:19:58.524Z,73.63
2023-05-22T17:20:59.240Z,73.53
2023-05-22T17:21:59.971Z,73.43
2023-05-22T17:23:00.699Z,73.83
2023-05-22T17:24:01.438Z,73.53
2023-05-22T17:25:02.220Z,73.33
2023-05-22T17:26:02.947Z,73.43
2023-05-22T17:27:03.706Z,73.63
2023-05-22T17:28:04.416Z,73.43
2023-05-22T17:29:05.133Z,73.13
2023-05-22T17:30:05.877Z,73.33
2023-05-22T17:31:06.590Z,73.53
2023-05-22T17:32:07.364Z,73.73
2023-05-22T17:33:08.143Z,73.63
2023-05-22T17:34:08.843Z,73.63
2023-05-22T17:35:09.569Z,73.83
2023-05-22T17:36:10.306Z,73.83
2023-05-22T17:37:11.617Z,74.37
2023-05-22T17:38:11.777Z,74.07
2023-05-22T17:39:12.502Z,73.97
2023-05-22T17:40:13.226Z,73.97
2023-05-22T17:41:13.957Z,74.17
2023-05-22T17:42:14.656Z,74.17
2023-05-22T17:43:15.371Z,74.27
2023-05-22T17:44:16.104Z,74.27
2023-05-22T17:45:16.833Z,74.07
2023-05-22T17:46:17.566Z,73.86
2023-05-22T17:47:18.287Z,73.86
2023-05-22T17:48:19.009Z,73.97
2023-05-22T17:49:19.748Z,73.86
2023-05-22T17:50:20.454Z,74.07
2023-05-22T17:51:21.164Z,74.27
2023-05-22T17:52:21.883Z,74.37
2023-05-22T17:53:22.660Z,74.67
2023-05-22T17:54:23.381Z,75.07
2023-05-22T17:55:24.107Z,74.57
2023-05-22T17:56:24.943Z,74.47
2023-05-22T17:57:25.634Z,74.67
2023-05-22T17:58:26.369Z,74.67
2023-05-22T17:59:27.099Z,74.97
2023-05-22T18:00:27.815Z,74.77
2023-05-22T18:01:28.542Z,74.47
2023-05-22T18:02:29.557Z,74.57
2023-05-22T18:03:30.443Z,74.47
2023-05-22T18:04:31.226Z,74.47
2023-05-22T18:05:31.947Z,74.57
2023-05-22T18:06:32.735Z,74.17
2023-05-22T18:07:33.493Z,73.77
2023-05-22T18:08:34.221Z,74.07
2023-05-22T18:09:34.934Z,74.07
2023-05-22T18:10:35.643Z,74.27
2023-05-22T18:11:36.353Z,74.27
2023-05-22T18:12:38.280Z,74.37
2023-05-22T18:13:37.544Z,74.30
2023-05-22T18:14:38.253Z,74.40
2023-05-22T18:15:39.004Z,74.30
2023-05-22T18:16:39.803Z,74.30
2023-05-22T18:17:40.552Z,74.40
2023-05-22T18:18:41.340Z,74.30
2023-05-22T18:19:42.048Z,74.51
2023-05-22T18:20:42.943Z,74.40
2023-05-22T18:21:43.691Z,74.40
2023-05-22T18:22:44.406Z,74.30
2023-05-22T18:23:45.155Z,74.20
2023-05-22T18:24:45.839Z,74.51
2023-05-22T18:25:46.568Z,74.60
2023-05-22T18:26:47.285Z,74.51
2023-05-22T18:27:48.054Z,74.51
2023-05-22T18:28:48.769Z,74.60
2023-05-22T18:29:49.616Z,74.40
2023-05-22T18:30:50.348Z,74.60
2023-05-22T18:31:51.114Z,74.90
2023-05-22T18:32:51.929Z,74.90
2023-05-22T18:33:52.724Z,74.60
2023-05-22T18:34:53.451Z,74.80
2023-05-22T18:35:54.345Z,75.01
2023-05-22T18:36:55.050Z,75.14
2023-05-22T18:37:55.758Z,75.10
2023-05-22T18:38:56.465Z,75.10
2023-05-22T18:39:57.181Z,75.04
2023-05-22T18:40:57.898Z,74.94
2023-05-22T18:41:58.722Z,75.24
2023-05-22T18:42:59.416Z,75.74
2023-05-22T18:44:00.127Z,75.84
2023-05-22T18:45:00.864Z,75.74
2023-05-22T18:46:01.572Z,75.64
2023-05-22T18:47:02.326Z,75.74
2023-05-22T18:48:03.147Z,75.74
2023-05-22T18:49:04.047Z,75.45
2023-05-22T18:50:04.775Z,75.54
2023-05-22T18:51:05.473Z,75.64
2023-05-22T18:52:06.242Z,76.25
2023-05-22T18:53:06.984Z,76.25
2023-05-22T18:54:07.696Z,75.95
2023-05-22T18:55:08.412Z,75.84
2023-05-22T18:56:09.134Z,75.84
2023-05-22T18:57:09.894Z,75.95
2023-05-22T18:58:10.615Z,75.95
2023-05-22T18:59:11.364Z,75.84
2023-05-22T19:00:12.112Z,76.04
2023-05-22T19:01:12.826Z,76.38
2023-05-22T19:02:13.555Z,76.18
2023-05-22T19:03:14.336Z,76.28
2023-05-22T19:04:15.112Z,76.08
2023-05-22T19:05:15.929Z,75.98
2023-05-22T19:06:16.613Z,75.98
2023-05-22T19:07:17.345Z,76.28
2023-05-22T19:08:18.016Z,76.28
2023-05-22T19:09:18.758Z,76.18
2023-05-22T19:10:19.498Z,76.18
2023-05-22T19:11:20.261Z,76.38
2023-05-22T19:12:20.990Z,76.48
2023-05-22T19:13:21.741Z,76.48
2023-05-22T19:14:22.505Z,76.58
2023-05-22T19:15:23.209Z,76.48
2023-05-22T19:16:23.915Z,76.68
2023-05-22T19:17:24.697Z,76.62
2023-05-22T19:18:25.397Z,76.62
2023-05-22T19:19:26.239Z,76.62
2023-05-22T19:20:26.940Z,76.82
2023-05-22T19:21:27.672Z,76.92
2023-05-22T19:22:28.407Z,76.72
2023-05-22T19:23:29.142Z,76.72
2023-05-22T19:24:29.868Z,77.02
2023-05-22T19:25:39.607Z,77.02
2023-05-22T19:26:31.984Z,76.72
2023-05-22T19:27:41.261Z,76.82
2023-05-22T19:28:33.031Z,76.92
2023-05-22T19:29:41.847Z,77.22
2023-05-22T19:30:33.949Z,77.22
2023-05-22T19:31:34.838Z,77.42
2023-05-22T19:32:35.597Z,77.32
2023-05-22T19:33:36.290Z,77.42
2023-05-22T19:34:37.028Z,77.52
2023-05-22T19:35:37.919Z,77.52
2023-05-22T19:36:38.645Z,77.72
2023-05-22T19:37:39.348Z,77.92
